Time;durP1;ratioP1;P1;durP2;ratioP2;P2;SDS_P1;SDS_P2;PMS_P1;PMS_P2;Temp;Humidity;BMP_temperature;BMP_pressure;BME280_temperature;BME280_humidity;BME280_pressure;Samples;Min_cycle;Max_cycle;Signal;HPM_P1;HPM_P2
2021/12/23 00:00:19;;;;;;;;;;;;;;;17.67;38.89;101026.53;7287658;19;152728;-50
2021/12/23 00:02:46;;;;;;;;;;;;;;;17.64;39.27;101025.13;7282978;19;153322;-49
2021/12/23 00:05:13;;;;;;;;;;;;;;;17.63;38.86;101022.59;7283109;19;153763;-50
2021/12/23 00:07:40;;;;;;;;;;;;;;;17.61;39.28;101022.06;7286478;19;152056;-50
2021/12/23 00:10:09;;;;;;;;;;;;;;;17.60;39.08;101025.97;7286345;19;153304;-49
2021/12/23 00:12:37;;;;;;;;;;;;;;;17.58;38.94;101014.25;7284908;19;154168;-49
2021/12/23 00:15:09;;;;;;;;;;;;;;;17.54;39.25;101011.16;7296215;19;152200;-50
2021/12/23 00:25:08;;;;;;;;;;;;;;;17.52;39.49;100996.66;7284466;19;153173;-50
2021/12/23 00:27:36;;;;;;;;;;;;;;;17.48;39.56;100991.94;7285298;19;153261;-49
2021/12/23 00:30:04;;;;;;;;;;;;;;;17.46;39.22;100986.63;7288959;19;153043;-49
2021/12/23 00:32:36;;;;;;;;;;;;;;;17.44;39.27;100980.50;7286943;19;153424;-49
2021/12/23 00:35:04;;;;;;;;;;;;;;;17.43;39.59;100981.63;7285101;19;151967;-50
2021/12/23 00:37:37;;;;;;;;;;;;;;;17.42;39.46;100970.72;7293032;19;153453;-50
2021/12/23 00:40:05;;;;;;;;;;;;;;;17.42;39.51;100981.91;7287428;19;152009;-50
2021/12/23 00:42:34;;;;;;;;;;;;;;;17.42;39.55;100979.13;7286174;19;152915;-49
2021/12/23 00:45:03;;;;;;;;;;;;;;;17.40;39.49;100978.59;7286345;19;152320;-50
2021/12/23 00:47:30;;;;;;;;;;;;;;;17.35;39.70;100971.06;7285538;19;151896;-50
2021/12/23 00:49:58;;;;;;;;;;;;;;;17.34;39.43;100961.84;7286805;19;153460;-50
2021/12/23 00:52:32;;;;;;;;;;;;;;;17.32;39.32;100975.25;7285052;19;154332;-50
2021/12/23 00:55:01;;;;;;;;;;;;;;;17.35;39.62;100969.06;7286474;19;153052;-50
2021/12/23 00:57:30;;;;;;;;;;;;;;;17.32;39.32;100968.81;7284437;19;151941;-49
2021/12/23 00:59:59;;;;;;;;;;;;;;;17.31;39.48;100964.34;7294610;19;154211;-49
2021/12/23 01:02:30;;;;;;;;;;;;;;;17.31;39.64;100956.81;7285784;19;152781;-50
2021/12/23 01:04:59;;;;;;;;;;;;;;;17.30;39.45;100945.94;7284912;19;154490;-50
2021/12/23 01:07:26;;;;;;;;;;;;;;;17.27;39.43;100938.97;7286264;19;152229;-50
2021/12/23 01:09:53;;;;;;;;;;;;;;;17.26;39.84;100928.09;7282830;19;152200;-50
2021/12/23 01:12:27;;;;;;;;;;;;;;;17.26;39.57;100920.53;7285420;19;154777;-50
2021/12/23 01:15:09;;;;;;;;;;;;;;;17.25;39.85;100913.31;7285940;19;151741;-49
2021/12/23 01:20:10;;;;;;;;;;;;;;;17.21;39.90;100928.97;7282561;19;153571;-49
2021/12/23 01:22:37;;;;;;;;;;;;;;;17.23;39.42;100917.50;7293259;19;151939;-49
2021/12/23 01:25:04;;;;;;;;;;;;;;;17.21;39.64;100919.75;7284046;19;153849;-50
2021/12/23 01:27:33;;;;;;;;;;;;;;;17.21;39.54;100925.34;7285258;19;152431;-49
2021/12/23 01:30:04;;;;;;;;;;;;;;;17.19;39.83;100917.22;7287683;19;153016;-49
2021/12/23 01:32:31;;;;;;;;;;;;;;;17.17;39.89;100915.88;7283910;19;152897;-49
2021/12/23 01:34:59;;;;;;;;;;;;;;;17.12;40.00;100913.94;7286220;19;151678;-49
2021/12/23 01:37:26;;;;;;;;;;;;;;;17.13;39.96;100906.38;7285553;19;152764;-50
2021/12/23 01:39:53;;;;;;;;;;;;;;;17.13;39.72;100907.19;7283991;19;153413;-49
2021/12/23 01:42:21;;;;;;;;;;;;;;;17.13;40.14;100911.94;7285207;19;152054;-49
2021/12/23 01:44:50;;;;;;;;;;;;;;;17.13;39.66;100906.38;7290435;19;154186;-50
2021/12/23 01:47:19;;;;;;;;;;;;;;;17.10;40.07;100898.56;7278410;19;152051;-50
2021/12/23 01:49:46;;;;;;;;;;;;;;;17.08;39.79;100900.84;7282997;19;153560;-49
2021/12/23 01:52:13;;;;;;;;;;;;;;;17.09;40.09;100903.31;7279293;19;153116;-50
2021/12/23 01:54:40;;;;;;;;;;;;;;;17.07;40.01;100905.56;7281276;19;151975;-50
2021/12/23 01:57:10;;;;;;;;;;;;;;;17.06;39.84;100895.53;7283957;19;153969;-50
2021/12/23 01:59:38;;;;;;;;;;;;;;;17.09;39.95;100894.09;7283678;19;154155;-50
2021/12/23 02:02:06;;;;;;;;;;;;;;;17.08;40.16;100882.09;7285015;19;152215;-50
2021/12/23 02:04:33;;;;;;;;;;;;;;;17.05;39.89;100874.31;7291574;19;152068;-49
2021/12/23 02:07:00;;;;;;;;;;;;;;;17.06;40.10;100883.53;7281671;19;151945;-50
2021/12/23 02:09:27;;;;;;;;;;;;;;;17.04;40.17;100881.00;7285622;19;153104;-49
2021/12/23 02:11:55;;;;;;;;;;;;;;;17.05;40.36;100876.25;7284350;19;153825;-49
2021/12/23 02:14:23;;;;;;;;;;;;;;;17.04;40.16;100880.16;7282974;19;151895;-49
2021/12/23 02:16:50;;;;;;;;;;;;;;;17.03;39.90;100876.56;7282643;19;152797;-50
2021/12/23 02:19:19;;;;;;;;;;;;;;;17.05;39.86;100881.84;7281513;19;154439;-49
2021/12/23 02:21:47;;;;;;;;;;;;;;;17.03;40.37;100879.38;7281091;19;151676;-49
2021/12/23 02:24:15;;;;;;;;;;;;;;;17.03;40.19;100872.94;7280235;19;152671;-49
2021/12/23 02:26:42;;;;;;;;;;;;;;;17.03;40.26;100881.31;7286723;19;152702;-49
2021/12/23 02:29:10;;;;;;;;;;;;;;;17.02;40.00;100866.53;7285398;19;152071;-50
2021/12/23 02:31:37;;;;;;;;;;;;;;;17.00;40.07;100852.00;7279422;19;152707;-49
2021/12/23 02:34:05;;;;;;;;;;;;;;;16.99;40.16;100853.13;7282209;19;151910;-49
2021/12/23 02:36:32;;;;;;;;;;;;;;;16.97;40.25;100865.72;7282618;19;151990;-49
2021/12/23 02:38:59;;;;;;;;;;;;;;;16.97;40.42;100868.50;7281096;19;153139;-49
2021/12/23 02:41:26;;;;;;;;;;;;;;;16.96;40.26;100881.63;7240983;19;152978;-49
2021/12/23 02:43:54;;;;;;;;;;;;;;;16.95;40.35;100879.09;7283804;19;152761;-50
2021/12/23 02:46:21;;;;;;;;;;;;;;;16.95;40.60;100870.72;7280571;19;153781;-49
2021/12/23 02:48:48;;;;;;;;;;;;;;;16.92;40.57;100866.56;7287834;19;152027;-49
2021/12/23 02:51:16;;;;;;;;;;;;;;;16.92;40.63;100869.34;7280383;19;154393;-49
2021/12/23 02:53:44;;;;;;;;;;;;;;;16.90;40.28;100846.47;7280322;19;151986;-50
2021/12/23 02:56:15;;;;;;;;;;;;;;;16.92;40.74;100848.97;7278627;19;153171;-49
2021/12/23 02:58:44;;;;;;;;;;;;;;;16.90;40.43;100852.88;7284997;19;153282;-49
2021/12/23 03:01:12;;;;;;;;;;;;;;;16.89;40.38;100831.72;7287070;19;152559;-50
2021/12/23 03:03:39;;;;;;;;;;;;;;;16.87;40.74;100833.09;7286301;19;153313;-49
2021/12/23 03:06:06;;;;;;;;;;;;;;;16.87;40.53;100827.53;7284179;19;154014;-50
2021/12/23 03:08:35;;;;;;;;;;;;;;;16.86;40.57;100817.47;7284495;19;152244;-50
2021/12/23 03:11:03;;;;;;;;;;;;;;;16.84;40.78;100819.75;7292992;19;153382;-49
2021/12/23 03:13:30;;;;;;;;;;;;;;;16.85;40.49;100832.56;7287733;19;152233;-50
2021/12/23 03:15:57;;;;;;;;;;;;;;;16.84;40.63;100836.47;7287901;19;153274;-49
2021/12/23 03:18:25;;;;;;;;;;;;;;;16.83;40.61;100823.63;7285505;19;154288;-50
2021/12/23 03:20:52;;;;;;;;;;;;;;;16.84;40.85;100817.78;7285003;19;152660;-49
2021/12/23 03:23:19;;;;;;;;;;;;;;;16.82;40.56;100817.22;7287257;19;153779;-50
2021/12/23 03:25:46;;;;;;;;;;;;;;;16.83;41.06;100809.69;7283731;19;154435;-50
2021/12/23 03:28:13;;;;;;;;;;;;;;;16.81;40.89;100797.97;7287090;19;152282;-50
2021/12/23 03:30:39;;;;;;;;;;;;;;;16.80;41.05;100802.75;7263903;19;154036;-50
2021/12/23 03:33:06;;;;;;;;;;;;;;;16.80;40.68;100793.53;7287139;19;153356;-50
2021/12/23 03:35:33;;;;;;;;;;;;;;;16.79;40.76;100791.84;7285159;19;152692;-49
2021/12/23 03:38:00;;;;;;;;;;;;;;;16.80;40.74;100790.75;7284880;19;153303;-49
2021/12/23 03:40:27;;;;;;;;;;;;;;;16.78;41.17;100784.59;7285495;19;152156;-49
2021/12/23 03:42:54;;;;;;;;;;;;;;;16.77;41.00;100780.13;7282948;19;151819;-50
2021/12/23 03:45:21;;;;;;;;;;;;;;;16.79;40.99;100780.69;7285607;19;153792;-50
2021/12/23 03:47:50;;;;;;;;;;;;;;;16.78;41.21;100779.03;7284781;19;151719;-50
2021/12/23 03:50:18;;;;;;;;;;;;;;;16.76;41.24;100778.50;7286584;19;152746;-50
2021/12/23 03:52:45;;;;;;;;;;;;;;;16.77;41.20;100780.13;7285218;19;153386;-50
2021/12/23 03:55:12;;;;;;;;;;;;;;;16.76;41.32;100784.06;7290373;19;153138;-50
2021/12/23 03:57:39;;;;;;;;;;;;;;;16.74;41.26;100787.13;7282869;19;153854;-50
2021/12/23 04:00:08;;;;;;;;;;;;;;;16.73;41.00;100774.31;7283167;19;152222;-50
2021/12/23 04:02:35;;;;;;;;;;;;;;;16.73;41.21;100785.47;7274817;19;153134;-49
2021/12/23 04:05:02;;;;;;;;;;;;;;;16.74;41.03;100781.56;7284316;19;153976;-49
2021/12/23 04:07:29;;;;;;;;;;;;;;;16.74;41.24;100783.50;7284351;19;151972;-49
2021/12/23 04:09:56;;;;;;;;;;;;;;;16.72;41.06;100782.94;7286193;19;152581;-49
2021/12/23 04:12:23;;;;;;;;;;;;;;;16.73;41.20;100773.47;7276139;19;154096;-49
2021/12/23 04:14:50;;;;;;;;;;;;;;;16.70;41.07;100766.53;7288922;19;152242;-49
2021/12/23 04:17:17;;;;;;;;;;;;;;;16.71;41.51;100756.19;7282379;19;152825;-49
2021/12/23 04:19:46;;;;;;;;;;;;;;;16.69;41.12;100756.47;7284070;19;152234;-49
2021/12/23 04:22:13;;;;;;;;;;;;;;;16.71;41.30;100751.47;7283302;19;152508;-49
2021/12/23 04:24:40;;;;;;;;;;;;;;;16.69;41.20;100747.28;7284313;19;153318;-49
2021/12/23 04:27:07;;;;;;;;;;;;;;;16.70;41.25;100741.41;7283115;19;152563;-50
2021/12/23 04:29:34;;;;;;;;;;;;;;;16.68;41.68;100743.66;7283342;19;152296;-50
2021/12/23 04:32:01;;;;;;;;;;;;;;;16.67;41.42;100741.97;7279677;19;152186;-49
2021/12/23 04:34:28;;;;;;;;;;;;;;;16.67;41.58;100749.53;7283313;19;152442;-49
2021/12/23 04:36:55;;;;;;;;;;;;;;;16.67;41.72;100741.97;7288887;19;152167;-50
2021/12/23 04:39:21;;;;;;;;;;;;;;;16.67;41.72;100736.38;7282521;19;152929;-49
2021/12/23 04:41:48;;;;;;;;;;;;;;;16.66;41.83;100729.16;7283684;19;152216;-49
2021/12/23 04:44:15;;;;;;;;;;;;;;;16.66;41.62;100725.53;7282617;19;153252;-50
2021/12/23 04:46:42;;;;;;;;;;;;;;;16.65;41.68;100721.91;7283224;19;152107;-50
2021/12/23 04:49:09;;;;;;;;;;;;;;;16.62;41.73;100721.66;7283524;19;152714;-50
2021/12/23 04:51:36;;;;;;;;;;;;;;;16.63;41.96;100717.72;7281793;19;154412;-49
2021/12/23 04:54:03;;;;;;;;;;;;;;;16.62;41.97;100722.50;7284031;19;152709;-50
2021/12/23 04:56:30;;;;;;;;;;;;;;;16.62;41.99;100713.28;7280932;19;152615;-49
2021/12/23 04:58:57;;;;;;;;;;;;;;;16.62;42.03;100702.13;7289336;19;153812;-49
2021/12/23 05:01:29;;;;;;;;;;;;;;;16.61;41.88;100697.69;7283415;19;153068;-49
2021/12/23 05:03:56;;;;;;;;;;;;;;;16.60;41.75;100685.69;7281945;19;152710;-50
2021/12/23 05:06:24;;;;;;;;;;;;;;;16.58;41.99;100689.91;7277745;19;152491;-51
2021/12/23 05:08:50;;;;;;;;;;;;;;;16.59;41.97;100684.00;7281226;19;153060;-49
2021/12/23 05:11:17;;;;;;;;;;;;;;;16.60;41.98;100679.28;7278059;19;152574;-49
2021/12/23 05:13:47;;;;;;;;;;;;;;;16.59;42.01;100688.75;7278497;19;151870;-49
2021/12/23 05:16:15;;;;;;;;;;;;;;;16.58;42.05;100673.16;7280133;19;153858;-50
2021/12/23 05:18:42;;;;;;;;;;;;;;;16.58;42.17;100681.53;7279990;19;153782;-49
2021/12/23 05:21:08;;;;;;;;;;;;;;;16.57;42.03;100669.50;7288187;19;151989;-50
2021/12/23 05:23:35;;;;;;;;;;;;;;;16.55;41.86;100660.56;7280054;19;153663;-51
2021/12/23 05:26:05;;;;;;;;;;;;;;;16.55;42.15;100660.56;7283065;19;152104;-51
2021/12/23 05:28:32;;;;;;;;;;;;;;;16.56;41.85;100659.47;7279749;19;152411;-50
2021/12/23 05:30:59;;;;;;;;;;;;;;;16.56;42.34;100661.41;7277956;19;154327;-50
2021/12/23 05:33:26;;;;;;;;;;;;;;;16.54;42.15;100658.91;7280127;19;152190;-50
2021/12/23 05:35:55;;;;;;;;;;;;;;;16.55;42.22;100643.84;7280154;19;154168;-49
2021/12/23 05:38:22;;;;;;;;;;;;;;;16.55;42.15;100643.84;7278843;19;152714;-50
2021/12/23 05:40:49;;;;;;;;;;;;;;;16.54;42.21;100638.56;7281862;19;152222;-50
2021/12/23 05:43:16;;;;;;;;;;;;;;;16.52;42.37;100626.88;7287999;19;153655;-50
2021/12/23 05:45:43;;;;;;;;;;;;;;;16.53;42.21;100615.44;7281949;19;152175;-50
2021/12/23 05:48:10;;;;;;;;;;;;;;;16.51;42.20;100617.66;7279104;19;152700;-50
2021/12/23 05:50:36;;;;;;;;;;;;;;;16.52;42.14;100618.50;7278219;19;153228;-50
2021/12/23 05:53:03;;;;;;;;;;;;;;;16.52;42.22;100643.59;7282164;19;152213;-49
2021/12/23 05:55:30;;;;;;;;;;;;;;;16.50;42.14;100640.25;7280937;19;153228;-50
2021/12/23 05:57:57;;;;;;;;;;;;;;;16.51;42.54;100633.56;7279125;19;153390;-50
2021/12/23 06:00:25;;;;;;;;;;;;;;;16.50;42.32;100640.25;7279245;19;152407;-50
2021/12/23 06:02:53;;;;;;;;;;;;;;;16.49;42.40;100630.25;7279733;19;152592;-50
2021/12/23 06:05:20;;;;;;;;;;;;;;;16.49;42.35;100633.03;7284855;19;152021;-50
2021/12/23 06:07:47;;;;;;;;;;;;;;;16.48;42.61;100618.25;7278400;19;151888;-50
2021/12/23 06:10:14;;;;;;;;;;;;;;;16.46;42.46;100618.53;7277932;19;154312;-50
2021/12/23 06:12:42;;;;;;;;;;;;;;;16.48;42.77;100629.41;7277883;19;152116;-51
2021/12/23 06:15:09;;;;;;;;;;;;;;;16.45;42.46;100621.59;7276561;19;152416;-51
2021/12/23 06:17:36;;;;;;;;;;;;;;;16.46;42.61;100623.28;7277217;19;152695;-50
2021/12/23 06:20:04;;;;;;;;;;;;;;;16.45;42.89;100616.03;7281476;19;152944;-50
2021/12/23 06:22:34;;;;;;;;;;;;;;;16.43;42.56;100607.97;7279733;19;153186;-50
2021/12/23 06:25:03;;;;;;;;;;;;;;;16.42;42.83;100609.09;7286620;19;154048;-50
2021/12/23 06:27:29;;;;;;;;;;;;;;;16.42;42.64;100611.03;7279648;19;153107;-50
2021/12/23 06:29:56;;;;;;;;;;;;;;;16.42;42.91;100614.66;7279694;19;152705;-50
2021/12/23 06:32:23;;;;;;;;;;;;;;;16.43;42.82;100616.34;7278070;19;151797;-49
2021/12/23 06:34:50;;;;;;;;;;;;;;;16.43;43.14;100623.88;7278628;19;153698;-51
2021/12/23 06:37:17;;;;;;;;;;;;;;;16.42;43.17;100627.75;7276809;19;152680;-50
2021/12/23 06:39:46;;;;;;;;;;;;;;;16.39;43.02;100626.41;7280512;19;152593;-50
2021/12/23 06:42:13;;;;;;;;;;;;;;;16.41;43.06;100626.09;7278931;19;151959;-50
2021/12/23 06:44:39;;;;;;;;;;;;;;;16.39;43.28;100625.56;7276316;19;153476;-51
2021/12/23 06:47:06;;;;;;;;;;;;;;;16.37;42.94;100614.69;7286396;19;152542;-49
2021/12/23 06:49:34;;;;;;;;;;;;;;;16.39;43.20;100609.66;7278590;19;154926;-50
2021/12/23 06:52:01;;;;;;;;;;;;;;;16.37;43.02;100611.06;7278901;19;153345;-50
2021/12/23 06:54:28;;;;;;;;;;;;;;;16.36;43.04;100613.00;7279232;19;153032;-50
2021/12/23 06:56:54;;;;;;;;;;;;;;;16.37;43.40;100606.31;7278283;19;153380;-50
2021/12/23 06:59:21;;;;;;;;;;;;;;;16.35;43.27;100602.97;7280575;19;151943;-50
2021/12/23 07:01:49;;;;;;;;;;;;;;;16.34;43.57;100587.41;7276854;19;151943;-50
2021/12/23 07:04:19;;;;;;;;;;;;;;;16.35;43.30;100591.03;7276022;19;154366;-50
2021/12/23 07:06:55;;;;;;;;;;;;;;;16.34;43.35;100590.19;7277630;19;152282;-50
2021/12/23 07:09:22;;;;;;;;;;;;;;;16.33;43.64;100588.50;7281685;19;152738;-50
2021/12/23 07:11:49;;;;;;;;;;;;;;;16.34;43.70;100583.78;7276698;19;151894;-50
2021/12/23 07:14:16;;;;;;;;;;;;;;;16.31;43.87;100582.38;7278079;19;152696;-50
2021/12/23 07:16:43;;;;;;;;;;;;;;;16.31;43.47;100592.69;7273895;19;154432;-50
2021/12/23 07:19:09;;;;;;;;;;;;;;;16.31;43.67;100599.09;7277764;19;152789;-50
2021/12/23 07:21:37;;;;;;;;;;;;;;;16.29;43.53;100609.72;7278227;19;153351;-50
2021/12/23 07:24:04;;;;;;;;;;;;;;;16.30;43.54;100616.16;7277973;19;153292;-50
2021/12/23 07:26:30;;;;;;;;;;;;;;;16.29;43.97;100612.53;7279244;19;152665;-50
2021/12/23 07:28:57;;;;;;;;;;;;;;;16.27;43.86;100609.16;7277176;19;152702;-50
2021/12/23 07:31:24;;;;;;;;;;;;;;;16.29;43.66;100611.69;7282471;19;154880;-50
2021/12/23 07:33:51;;;;;;;;;;;;;;;16.27;43.88;100598.03;7279154;19;152971;-50
2021/12/23 07:36:18;;;;;;;;;;;;;;;16.27;43.92;100597.19;7274200;19;153404;-50
2021/12/23 07:38:45;;;;;;;;;;;;;;;16.27;43.82;100592.44;7279251;19;151554;-50
2021/12/23 07:41:12;;;;;;;;;;;;;;;16.27;43.65;100586.88;7275711;19;152999;-50
2021/12/23 07:46:07;;;;;;;;;;;;;;;16.26;43.66;100607.50;7285125;19;152214;-50
2021/12/23 07:48:34;;;;;;;;;;;;;;;16.25;44.01;100603.06;7282415;19;151954;-50
2021/12/23 07:51:02;;;;;;;;;;;;;;;16.24;44.01;100595.00;7281825;19;152666;-49
2021/12/23 07:53:29;;;;;;;;;;;;;;;16.24;44.11;100587.47;7290357;19;152582;-50
2021/12/23 07:56:02;;;;;;;;;;;;;;;16.22;44.35;100584.13;7283136;19;154016;-49
2021/12/23 07:58:28;;;;;;;;;;;;;;;16.23;44.17;100584.94;7283658;19;152352;-50
2021/12/23 08:00:55;;;;;;;;;;;;;;;16.22;43.93;100583.28;7281757;19;152171;-50
2021/12/23 08:03:23;;;;;;;;;;;;;;;16.23;44.22;100580.22;7284025;19;153430;-50
2021/12/23 08:05:52;;;;;;;;;;;;;;;16.22;44.10;100570.19;7282195;19;152037;-50
2021/12/23 08:08:19;;;;;;;;;;;;;;;16.21;43.94;100568.53;7281053;19;152673;-50
2021/12/23 08:10:48;;;;;;;;;;;;;;;16.22;44.02;100566.56;7283392;19;154080;-50
2021/12/23 08:13:18;;;;;;;;;;;;;;;16.20;44.02;100568.81;7290539;19;153005;-50
2021/12/23 08:15:44;;;;;;;;;;;;;;;16.20;44.29;100574.38;7279809;19;153313;-50
2021/12/23 08:18:11;;;;;;;;;;;;;;;16.20;44.20;100586.38;7280772;19;152044;-50
2021/12/23 08:20:38;;;;;;;;;;;;;;;16.17;44.35;100586.13;7283273;19;153562;-50
2021/12/23 08:23:05;;;;;;;;;;;;;;;16.19;44.10;100575.50;7282531;19;152637;-49
2021/12/23 08:25:32;;;;;;;;;;;;;;;16.20;44.23;100583.59;7282343;19;152210;-50
2021/12/23 08:27:59;;;;;;;;;;;;;;;16.18;44.28;100591.38;7283775;19;152851;-51
2021/12/23 08:30:30;;;;;;;;;;;;;;;16.18;44.46;100594.19;7284456;19;153898;-50
2021/12/23 08:32:57;;;;;;;;;;;;;;;16.19;44.48;100592.22;7283276;19;152524;-50
2021/12/23 08:35:23;;;;;;;;;;;;;;;16.17;44.27;100603.66;7290725;19;152855;-50
2021/12/23 08:37:51;;;;;;;;;;;;;;;16.15;44.53;100619.84;7284336;19;151851;-50
2021/12/23 08:40:19;;;;;;;;;;;;;;;16.15;44.47;100607.84;7280695;19;153335;-50
2021/12/23 08:42:46;;;;;;;;;;;;;;;16.16;44.30;100609.53;7286895;19;153261;-50
2021/12/23 08:45:13;;;;;;;;;;;;;;;16.14;44.64;100603.41;7288432;19;151983;-50
2021/12/23 08:47:40;;;;;;;;;;;;;;;16.14;44.54;100598.66;7287554;19;152804;-50
2021/12/23 08:50:08;;;;;;;;;;;;;;;16.15;44.56;100594.75;7283675;19;153926;-50
2021/12/23 08:52:35;;;;;;;;;;;;;;;16.13;44.62;100602.56;7287898;19;151783;-50
2021/12/23 08:55:02;;;;;;;;;;;;;;;16.13;44.56;100608.13;7286535;19;153233;-51
2021/12/23 08:57:29;;;;;;;;;;;;;;;16.13;44.49;100598.94;7292418;19;153654;-50
2021/12/23 08:59:56;;;;;;;;;;;;;;;16.12;44.74;100603.72;7288067;19;152587;-50
2021/12/23 09:02:23;;;;;;;;;;;;;;;16.11;44.89;100590.88;7286959;19;154161;-50
2021/12/23 09:04:50;;;;;;;;;;;;;;;16.12;44.78;100594.50;7286110;19;152044;-50
2021/12/23 09:07:16;;;;;;;;;;;;;;;16.13;44.74;100598.94;7287271;19;153738;-51
2021/12/23 09:09:47;;;;;;;;;;;;;;;16.11;45.00;100598.41;7284531;19;153944;-49
2021/12/23 09:12:13;;;;;;;;;;;;;;;16.11;44.73;100587.25;7287412;19;151655;-50
2021/12/23 09:14:40;;;;;;;;;;;;;;;16.08;44.90;100597.00;7287924;19;153162;-50
2021/12/23 09:17:11;;;;;;;;;;;;;;;16.09;44.98;100598.69;7286171;19;154495;-50
2021/12/23 09:19:38;;;;;;;;;;;;;;;16.10;45.08;100583.63;7294953;19;151911;-51
2021/12/23 09:22:04;;;;;;;;;;;;;;;16.08;45.05;100583.09;7285888;19;153680;-50
2021/12/23 09:24:32;;;;;;;;;;;;;;;16.09;44.98;100581.13;7288064;19;151910;-50
2021/12/23 09:27:15;;;;;;;;;;;;;;;16.07;44.97;100578.66;7287112;19;153154;-49
2021/12/23 09:35:03;;;;;;;;;;;;;;;16.10;45.19;100571.66;7287790;19;153344;-50
2021/12/23 09:37:29;;;;;;;;;;;;;;;16.08;45.36;100577.50;7284279;19;153792;-50
2021/12/23 09:39:58;;;;;;;;;;;;;;;16.07;45.16;100569.47;7286729;19;151691;-50
2021/12/23 09:42:32;;;;;;;;;;;;;;;16.07;45.23;100572.25;7293887;19;153192;-50
2021/12/23 09:45:01;;;;;;;;;;;;;;;16.06;45.17;100568.63;7287670;19;153722;-50
2021/12/23 09:47:30;;;;;;;;;;;;;;;16.07;45.19;100569.47;7287171;19;153471;-50
2021/12/23 09:49:58;;;;;;;;;;;;;;;16.05;45.29;100574.47;7284004;19;153344;-50
2021/12/23 09:52:27;;;;;;;;;;;;;;;16.05;45.54;100580.03;7286942;19;151840;-50
2021/12/23 09:54:55;;;;;;;;;;;;;;;16.05;45.31;100578.09;7286416;19;152649;-50
2021/12/23 09:57:22;;;;;;;;;;;;;;;16.07;45.59;100580.59;7284743;19;153121;-50
2021/12/23 09:59:48;;;;;;;;;;;;;;;16.04;45.48;100587.56;7287196;19;152065;-50
2021/12/23 10:02:15;;;;;;;;;;;;;;;16.02;45.32;100575.91;7285729;19;153031;-50
2021/12/23 10:04:42;;;;;;;;;;;;;;;16.01;45.55;100561.13;7290770;19;154169;-50
2021/12/23 10:07:09;;;;;;;;;;;;;;;16.02;45.37;100556.38;7285581;19;153513;-50
2021/12/23 10:31:27;;;;;;;;;;;;;;;15.98;46.08;100566.44;7283249;19;153862;-50
2021/12/23 10:39:43;;;;;;;;;;;;;;;15.97;45.94;100570.34;7283761;19;153263;-50
2021/12/23 10:42:10;;;;;;;;;;;;;;;15.98;46.01;100572.84;7285082;19;152069;-51
2021/12/23 10:44:37;;;;;;;;;;;;;;;15.97;46.05;100570.34;7285759;19;153274;-50
2021/12/23 10:47:06;;;;;;;;;;;;;;;15.94;46.12;100557.81;7283389;19;154067;-50
2021/12/23 10:49:42;;;;;;;;;;;;;;;15.97;45.82;100570.34;7290377;19;153067;-50
2021/12/23 10:52:16;;;;;;;;;;;;;;;15.94;46.17;100566.16;7282370;19;152218;-50
2021/12/23 11:00:30;;;;;;;;;;;;;;;15.94;46.28;100555.03;7283093;19;153247;-50
2021/12/23 11:03:28;;;;;;;;;;;;;;;15.94;46.17;100555.03;7284130;19;151591;-50
2021/12/23 11:06:08;;;;;;;;;;;;;;;15.95;46.19;100553.06;7279773;19;153152;-50
2021/12/23 11:11:32;;;;;;;;;;;;;;;15.95;46.29;100548.34;7284342;19;152219;-50
2021/12/23 11:39:50;;;;;;;;;;;;;;;15.90;46.71;100505.75;7296833;19;156191;-50
2021/12/23 11:42:33;;;;;;;;;;;;;;;15.89;46.74;100498.53;7288708;19;153313;-50
2021/12/23 11:45:00;;;;;;;;;;;;;;;15.90;46.96;100502.94;7289114;19;153850;-49
2021/12/23 11:47:28;;;;;;;;;;;;;;;15.89;46.76;100491.00;7289028;19;152674;-49
2021/12/23 11:49:54;;;;;;;;;;;;;;;15.89;46.80;100491.00;7288359;19;153168;-49
2021/12/23 11:52:21;;;;;;;;;;;;;;;15.86;46.63;100488.78;7288156;19;153958;-49
2021/12/23 11:54:48;;;;;;;;;;;;;;;15.88;46.57;100486.53;7289826;19;152062;-49
2021/12/23 11:57:21;;;;;;;;;;;;;;;15.87;46.79;100484.03;7289106;19;152377;-49
2021/12/23 12:00:01;;;;;;;;;;;;;;;15.87;46.63;100467.31;7287583;19;154265;-50
2021/12/23 12:02:32;;;;;;;;;;;;;;;15.87;46.95;100459.81;7296265;19;152135;-50
2021/12/23 12:05:03;;;;;;;;;;;;;;;15.86;47.07;100441.41;7287795;19;153388;-49
2021/12/23 12:07:30;;;;;;;;;;;;;;;15.84;46.79;100449.25;7289200;19;152188;-50
2021/12/23 12:09:57;;;;;;;;;;;;;;;15.87;46.81;100442.25;7288631;19;153545;-50
2021/12/23 12:12:24;;;;;;;;;;;;;;;15.86;46.93;100441.41;7287943;19;153225;-49
2021/12/23 12:14:55;;;;;;;;;;;;;;;15.85;46.82;100438.94;7289410;19;151766;-49
2021/12/23 12:17:25;;;;;;;;;;;;;;;15.85;47.03;100431.38;7286426;19;152842;-50
2021/12/23 12:19:56;;;;;;;;;;;;;;;15.85;47.08;100428.59;7288230;19;153559;-50
2021/12/23 12:22:42;;;;;;;;;;;;;;;15.84;46.86;100426.97;7288950;19;151959;-50
2021/12/23 12:25:09;;;;;;;;;;;;;;;15.83;46.95;100428.09;7295252;19;153259;-49
2021/12/23 12:27:37;;;;;;;;;;;;;;;15.85;47.31;100423.03;7289074;19;152228;-49
2021/12/23 12:30:06;;;;;;;;;;;;;;;15.85;46.92;100427.81;7285810;19;152666;-49
2021/12/23 12:32:34;;;;;;;;;;;;;;;15.83;47.20;100422.50;7287206;19;153844;-49
2021/12/23 12:35:09;;;;;;;;;;;;;;;15.85;47.10;100411.09;7286516;19;151951;-49
2021/12/23 12:37:43;;;;;;;;;;;;;;;15.86;47.49;100412.72;7287381;19;151853;-49
2021/12/23 12:40:10;;;;;;;;;;;;;;;15.85;47.12;100416.66;7265195;19;154609;-49
2021/12/23 12:42:42;;;;;;;;;;;;;;;15.85;47.64;100413.88;7275557;19;152208;-49
2021/12/23 12:45:13;;;;;;;;;;;;;;;15.82;47.89;100408.88;7293611;19;153303;-49
2021/12/23 12:47:49;;;;;;;;;;;;;;;15.82;47.53;100406.91;7286291;19;151913;-49
2021/12/23 12:50:17;;;;;;;;;;;;;;;15.83;47.57;100399.41;7285655;19;152779;-48
2021/12/23 12:52:46;;;;;;;;;;;;;;;15.83;47.88;100399.41;7284851;19;153536;-49
2021/12/23 12:55:23;;;;;;;;;;;;;;;15.80;47.61;100389.69;7286270;19;152167;-50
2021/12/23 12:57:53;;;;;;;;;;;;;;;15.80;47.69;100395.25;7285314;19;153837;-49
2021/12/23 13:00:31;;;;;;;;;;;;;;;15.80;47.96;100392.47;7285288;19;153668;-49
2021/12/23 13:03:17;;;;;;;;;;;;;;;15.84;48.14;100401.91;7285541;19;151878;-50
2021/12/23 13:05:52;;;;;;;;;;;;;;;15.86;48.09;100398.81;7284650;19;152627;-50
2021/12/23 13:08:32;;;;;;;;;;;;;;;15.87;48.15;100401.31;7292193;19;152183;-50
2021/12/23 13:11:21;;;;;;;;;;;;;;;15.97;47.92;100400.41;7282937;19;153339;-50
2021/12/23 13:13:59;;;;;;;;;;;;;;;16.03;47.92;100402.84;7284172;19;154414;-49
2021/12/23 13:16:26;;;;;;;;;;;;;;;16.09;48.65;100386.06;7285611;19;152375;-49
2021/12/23 13:19:12;;;;;;;;;;;;;;;16.15;48.51;100382.13;7284705;19;153301;-49
2021/12/23 13:21:41;;;;;;;;;;;;;;;16.22;48.70;100380.66;7283323;19;152397;-49
2021/12/23 13:24:11;;;;;;;;;;;;;;;16.28;48.56;100382.28;7285607;19;152632;-49
2021/12/23 13:26:38;;;;;;;;;;;;;;;16.34;48.98;100377.50;7283308;19;153197;-49
2021/12/23 13:29:07;;;;;;;;;;;;;;;16.41;49.27;100380.75;7283642;19;153941;-49
2021/12/23 13:31:36;;;;;;;;;;;;;;;16.48;49.19;100381.25;7290245;19;152573;-49
2021/12/23 13:34:09;;;;;;;;;;;;;;;16.55;48.98;100381.72;7283013;19;153168;-49
2021/12/23 13:36:44;;;;;;;;;;;;;;;16.61;49.49;100375.00;7285418;19;152139;-50
2021/12/23 13:39:16;;;;;;;;;;;;;;;16.68;48.64;100371.84;7284692;19;152870;-50
2021/12/23 13:41:45;;;;;;;;;;;;;;;16.77;48.50;100370.06;7280351;19;153251;-50
2021/12/23 13:44:14;;;;;;;;;;;;;;;16.84;48.61;100379.75;7280068;19;152173;-50
2021/12/23 13:46:42;;;;;;;;;;;;;;;16.92;48.52;100381.03;7283875;19;153113;-49
2021/12/23 13:49:10;;;;;;;;;;;;;;;16.98;48.60;100365.91;7282290;19;153396;-49
2021/12/23 13:51:39;;;;;;;;;;;;;;;17.07;48.10;100371.66;7282931;19;151657;-50
2021/12/23 13:54:11;;;;;;;;;;;;;;;17.16;47.73;100367.06;7291466;19;153359;-50